Time;durP1;ratioP1;P1;durP2;ratioP2;P2;SDS_P1;SDS_P2;PMS_P1;PMS_P2;Temp;Humidity;BMP_temperature;BMP_pressure;BME280_temperature;BME280_humidity;BME280_pressure;Samples;Min_cycle;Max_cycle;Signal;HPM_P1;HPM_P2
2021/09/14 00:01:20;;;;;;;1.77;1.33;;;8.10;99.90;;;;;;5009392;28;20065;-61
2021/09/14 00:03:48;;;;;;;2.80;1.23;;;8.00;99.90;;;;;;5025717;28;20050;-66
2021/09/14 00:06:15;;;;;;;1.55;1.20;;;8.00;99.90;;;;;;5010658;28;20486;-65
2021/09/14 00:08:42;;;;;;;2.00;1.38;;;8.00;99.90;;;;;;5010633;28;20050;-61
2021/09/14 00:11:08;;;;;;;1.25;1.15;;;8.00;99.90;;;;;;5010760;28;20480;-63
2021/09/14 00:13:35;;;;;;;1.33;1.17;;;8.10;99.90;;;;;;5009122;28;20050;-64
2021/09/14 00:16:02;;;;;;;2.63;1.20;;;8.00;99.90;;;;;;5012303;28;20125;-67
2021/09/14 00:18:30;;;;;;;1.65;1.25;;;8.10;99.90;;;;;;5014903;28;20046;-66
2021/09/14 00:20:57;;;;;;;2.88;1.33;;;8.10;99.90;;;;;;5014773;28;20066;-63
2021/09/14 00:23:24;;;;;;;1.30;1.20;;;8.10;99.90;;;;;;5014382;28;20061;-63
2021/09/14 00:25:51;;;;;;;1.50;1.20;;;8.10;99.90;;;;;;5015532;28;20121;-62
2021/09/14 00:28:18;;;;;;;1.63;1.40;;;8.20;99.90;;;;;;5014252;28;20503;-65
2021/09/14 00:30:45;;;;;;;1.50;1.08;;;8.20;99.90;;;;;;5014415;28;20484;-63
2021/09/14 00:33:12;;;;;;;1.90;1.80;;;8.20;99.90;;;;;;5012918;28;20468;-64
2021/09/14 00:35:39;;;;;;;1.38;1.10;;;8.20;99.90;;;;;;5014217;28;20050;-62
2021/09/14 00:38:05;;;;;;;1.95;1.33;;;8.20;99.90;;;;;;5014495;28;20066;-63
2021/09/14 00:40:32;;;;;;;2.55;1.35;;;8.30;99.90;;;;;;5014097;28;20057;-66
2021/09/14 00:43:00;;;;;;;1.58;0.95;;;8.30;99.90;;;;;;5012784;28;20053;-63
2021/09/14 00:45:27;;;;;;;3.25;1.08;;;8.40;99.90;;;;;;5011162;28;20109;-61
2021/09/14 00:47:53;;;;;;;2.42;1.70;;;8.40;99.90;;;;;;5013938;28;20096;-60
2021/09/14 00:50:20;;;;;;;1.98;1.05;;;8.50;99.90;;;;;;5014368;28;20042;-60
2021/09/14 00:52:47;;;;;;;2.40;1.48;;;8.60;99.90;;;;;;5013902;28;20083;-61
2021/09/14 00:55:14;;;;;;;1.58;1.48;;;8.70;99.90;;;;;;5012976;28;20069;-60
2021/09/14 00:57:41;;;;;;;1.70;1.20;;;8.70;99.90;;;;;;5013913;28;20482;-61
2021/09/14 01:00:08;;;;;;;2.97;2.03;;;8.80;99.90;;;;;;5014146;28;20104;-73
2021/09/14 01:02:36;;;;;;;4.95;1.85;;;8.80;99.90;;;;;;5026274;23;20062;-73
2021/09/14 01:05:04;;;;;;;2.42;0.88;;;8.80;99.90;;;;;;5012227;28;20121;-69
2021/09/14 01:07:32;;;;;;;1.75;1.25;;;8.80;99.90;;;;;;5011012;28;20129;-67
2021/09/14 01:09:59;;;;;;;2.22;1.05;;;8.70;99.90;;;;;;5013393;28;20500;-70
2021/09/14 01:12:27;;;;;;;2.53;1.30;;;8.70;99.90;;;;;;5013589;28;20112;-67
2021/09/14 01:14:55;;;;;;;1.40;1.10;;;8.70;99.90;;;;;;5012255;28;20522;-66
2021/09/14 01:17:27;;;;;;;2.90;1.15;;;8.70;99.90;;;;;;5010898;28;20387;-67
2021/09/14 01:19:54;;;;;;;1.48;1.02;;;8.80;99.90;;;;;;5012187;28;20033;-67
2021/09/14 01:22:32;;;;;;;1.50;1.10;;;8.90;99.90;;;;;;5011904;28;20041;-67
2021/09/14 01:25:00;;;;;;;5.63;1.75;;;8.90;99.90;;;;;;5013528;28;20038;-68
2021/09/14 01:27:27;;;;;;;3.15;1.10;;;8.90;99.90;;;;;;5009890;28;20041;-68
2021/09/14 01:30:12;;;;;;;1.70;1.00;;;8.90;99.90;;;;;;5011704;28;20030;-67
2021/09/14 01:32:49;;;;;;;0.80;0.80;;;8.90;99.90;;;;;;5011981;28;20414;-67
2021/09/14 01:35:25;;;;;;;4.95;1.48;;;8.90;99.90;;;;;;5009997;28;20053;-70
2021/09/14 01:37:55;;;;;;;6.82;1.67;;;8.90;99.90;;;;;;5011600;28;20045;-69
2021/09/14 01:40:25;;;;;;;1.35;0.88;;;8.90;99.90;;;;;;5011975;28;20559;-67
2021/09/14 01:42:55;;;;;;;1.60;1.20;;;8.90;99.90;;;;;;5011835;28;20063;-69
2021/09/14 01:45:22;;;;;;;2.38;1.80;;;8.90;99.90;;;;;;5010224;28;20092;-72
2021/09/14 01:47:50;;;;;;;1.10;0.90;;;9.00;99.90;;;;;;5011519;28;20050;-69
2021/09/14 01:50:17;;;;;;;2.13;0.82;;;9.00;99.90;;;;;;5011449;28;20578;-67
2021/09/14 01:52:45;;;;;;;1.30;1.00;;;9.00;99.90;;;;;;5011475;28;20563;-70
2021/09/14 01:55:17;;;;;;;2.03;1.38;;;9.00;99.90;;;;;;5009673;28;20073;-67
2021/09/14 01:57:46;;;;;;;2.17;1.40;;;9.00;99.90;;;;;;5010866;28;20053;-70
2021/09/14 02:00:18;;;;;;;3.85;1.52;;;9.00;99.90;;;;;;5011254;28;20038;-67
2021/09/14 02:44:01;;;;;;;4.38;1.60;;;9.30;99.90;;;;;;4992147;28;20045;-68
2021/09/14 03:00:17;;;;;;;2.53;1.40;;;9.20;99.90;;;;;;5026860;28;20399;-70
2021/09/14 03:02:45;;;;;;;2.15;1.95;;;9.20;99.90;;;;;;5009798;28;20045;-68
2021/09/14 03:05:13;;;;;;;2.00;1.80;;;9.20;99.90;;;;;;5007594;28;20042;-77
2021/09/14 03:07:43;;;;;;;2.33;2.13;;;9.20;99.90;;;;;;5006981;28;20511;-70
2021/09/14 03:10:10;;;;;;;2.65;1.58;;;9.30;99.90;;;;;;5006934;28;20038;-73
2021/09/14 03:12:37;;;;;;;2.08;1.70;;;9.20;99.90;;;;;;5007127;28;20046;-68
2021/09/14 03:15:05;;;;;;;3.50;1.63;;;9.20;99.90;;;;;;5006901;28;20060;-69
2021/09/14 03:17:34;;;;;;;2.85;1.77;;;9.20;99.90;;;;;;5005520;28;20052;-70
2021/09/14 03:20:01;;;;;;;8.35;2.65;;;9.20;99.90;;;;;;5006737;28;20050;-70
2021/09/14 03:22:28;;;;;;;2.20;1.70;;;9.30;99.90;;;;;;5008146;28;20048;-77
2021/09/14 03:24:56;;;;;;;2.45;2.13;;;9.30;99.90;;;;;;5006890;28;20505;-76
2021/09/14 03:27:23;;;;;;;6.18;2.60;;;9.20;99.90;;;;;;5004867;28;20457;-74
2021/09/14 03:29:50;;;;;;;8.80;1.95;;;9.20;99.90;;;;;;5022955;28;20141;-77
2021/09/14 03:32:17;;;;;;;2.15;1.70;;;9.20;99.90;;;;;;5006575;28;20400;-75
2021/09/14 03:34:45;;;;;;;2.42;1.65;;;9.30;99.90;;;;;;5006807;28;20050;-71
2021/09/14 03:37:12;;;;;;;8.32;2.38;;;9.30;99.90;;;;;;5008039;28;20041;-70
2021/09/14 03:39:40;;;;;;;2.60;1.83;;;9.30;99.90;;;;;;5009197;28;20053;-72
2021/09/14 03:42:13;;;;;;;1.63;1.50;;;9.40;99.90;;;;;;5009566;28;20057;-71
2021/09/14 03:44:41;;;;;;;4.20;2.20;;;9.30;99.90;;;;;;5009759;28;20395;-68
2021/09/14 03:47:09;;;;;;;2.42;1.63;;;9.40;99.90;;;;;;5009153;28;20096;-72
2021/09/14 03:49:37;;;;;;;2.38;2.17;;;9.40;99.90;;;;;;5008003;28;20042;-70
2021/09/14 03:52:04;;;;;;;4.32;2.20;;;9.40;99.90;;;;;;5009997;28;20526;-71
2021/09/14 03:54:32;;;;;;;2.50;1.90;;;9.40;99.90;;;;;;5025901;28;20042;-68
2021/09/14 03:56:59;;;;;;;2.55;1.67;;;9.40;99.90;;;;;;5009181;28;20468;-69
2021/09/14 03:59:27;;;;;;;3.40;1.83;;;9.40;99.90;;;;;;5007398;28;20049;-69
2021/09/14 04:01:57;;;;;;;2.35;2.10;;;9.40;99.90;;;;;;5008983;28;20038;-68
2021/09/14 04:09:37;;;;;;;3.65;2.08;;;9.40;99.90;;;;;;5023882;28;20072;-68
2021/09/14 04:12:10;;;;;;;3.10;2.67;;;9.50;99.90;;;;;;5008871;28;20092;-69
2021/09/14 04:14:38;;;;;;;2.75;1.88;;;9.40;99.90;;;;;;5009130;28;20049;-68
2021/09/14 04:17:05;;;;;;;3.03;2.35;;;9.40;99.90;;;;;;5008838;28;20042;-68
2021/09/14 04:19:32;;;;;;;2.30;1.95;;;9.40;99.90;;;;;;5007224;28;20034;-68
2021/09/14 04:22:03;;;;;;;5.00;2.75;;;9.40;99.90;;;;;;5008574;28;20037;-71
2021/09/14 04:24:35;;;;;;;3.33;1.92;;;9.40;99.90;;;;;;5008764;28;20050;-68
2021/09/14 04:27:05;;;;;;;3.05;2.45;;;9.40;99.90;;;;;;5010349;28;20455;-68
2021/09/14 04:29:33;;;;;;;4.10;2.00;;;9.40;99.90;;;;;;5023661;28;20050;-68
2021/09/14 04:32:01;;;;;;;4.30;1.90;;;9.30;99.90;;;;;;5008672;28;20037;-71
2021/09/14 04:34:28;;;;;;;3.28;2.50;;;9.30;99.90;;;;;;5008942;28;20042;-69
2021/09/14 04:36:56;;;;;;;4.93;2.35;;;9.40;99.90;;;;;;5008951;28;20519;-71
2021/09/14 04:39:23;;;;;;;2.90;2.42;;;9.40;99.90;;;;;;5007194;28;20105;-68
2021/09/14 04:41:50;;;;;;;6.35;2.60;;;9.40;99.90;;;;;;5009092;28;20145;-71
2021/09/14 04:44:21;;;;;;;6.20;2.70;;;9.40;99.90;;;;;;5010354;28;20048;-69
2021/09/14 04:46:48;;;;;;;3.75;3.03;;;9.50;99.90;;;;;;5025399;28;20443;-72
2021/09/14 04:49:16;;;;;;;5.32;3.05;;;9.50;99.90;;;;;;5007334;28;20068;-69
2021/09/14 04:51:43;;;;;;;3.35;2.38;;;9.50;99.90;;;;;;5008671;28;20068;-68
2021/09/14 04:54:11;;;;;;;3.38;2.85;;;9.60;99.90;;;;;;5008861;28;20042;-70
2021/09/14 04:56:38;;;;;;;5.05;2.92;;;9.70;99.90;;;;;;4992919;28;20079;-69
2021/09/14 04:59:05;;;;;;;6.72;2.95;;;9.80;99.90;;;;;;5008753;28;20061;-67
2021/09/14 05:01:32;;;;;;;6.63;3.30;;;9.90;99.90;;;;;;5007158;28;20065;-67
2021/09/14 05:03:59;;;;;;;6.85;3.08;;;9.90;99.90;;;;;;5011581;28;20437;-68
2021/09/14 05:06:30;;;;;;;7.38;2.92;;;10.00;99.90;;;;;;5013194;28;20131;-68
2021/09/14 05:08:59;;;;;;;2.83;1.98;;;10.00;99.90;;;;;;5012382;28;20049;-68
2021/09/14 05:11:26;;;;;;;4.35;3.33;;;10.10;99.90;;;;;;5011066;28;20129;-69
2021/09/14 05:13:53;;;;;;;6.22;3.13;;;10.10;99.90;;;;;;5012265;28;20519;-71
2021/09/14 05:16:20;;;;;;;3.92;3.10;;;10.20;99.90;;;;;;5013849;28;20042;-71
2021/09/14 05:19:07;;;;;;;5.03;2.85;;;10.20;99.90;;;;;;5013948;28;20060;-69
2021/09/14 05:21:44;;;;;;;4.75;3.30;;;10.30;99.90;;;;;;5010756;28;20124;-72
2021/09/14 05:24:11;;;;;;;6.22;3.25;;;10.30;99.90;;;;;;5012560;28;20119;-72
2021/09/14 05:26:39;;;;;;;6.40;3.28;;;10.30;99.90;;;;;;5012369;28;20069;-76
2021/09/14 05:29:06;;;;;;;3.33;3.03;;;10.40;99.90;;;;;;5012199;28;20049;-69
2021/09/14 05:31:34;;;;;;;4.03;2.28;;;10.40;99.90;;;;;;5010555;28;20042;-68
2021/09/14 05:34:02;;;;;;;4.80;3.13;;;10.50;99.90;;;;;;5012185;28;20038;-69
2021/09/14 05:36:29;;;;;;;4.20;2.88;;;10.60;99.90;;;;;;5012156;28;20387;-68
2021/09/14 05:38:55;;;;;;;7.85;2.83;;;10.70;99.90;;;;;;5013410;28;20448;-72
2021/09/14 05:41:22;;;;;;;4.78;2.38;;;10.80;99.90;;;;;;5010421;28;20048;-70
2021/09/14 05:43:49;;;;;;;5.50;2.55;;;10.80;99.90;;;;;;5013044;28;20405;-70
2021/09/14 05:46:17;;;;;;;4.70;3.33;;;10.80;99.90;;;;;;5011952;28;20042;-73
2021/09/14 05:48:44;;;;;;;5.72;3.05;;;10.80;99.90;;;;;;5011758;28;20050;-70
2021/09/14 05:51:12;;;;;;;5.50;2.63;;;10.90;99.90;;;;;;5009969;28;20416;-70
2021/09/14 05:53:50;;;;;;;6.40;2.65;;;11.00;99.90;;;;;;5011322;28;20030;-69
2021/09/14 05:56:16;;;;;;;4.75;2.60;;;11.20;99.90;;;;;;5012594;28;20044;-70
2021/09/14 05:58:43;;;;;;;5.07;2.00;;;11.20;99.90;;;;;;5011458;28;20122;-72
2021/09/14 06:01:13;;;;;;;3.25;2.95;;;11.40;99.90;;;;;;5010225;28;20097;-68
2021/09/14 06:03:40;;;;;;;3.67;2.25;;;11.50;99.90;;;;;;5012899;28;20038;-70
2021/09/14 06:06:08;;;;;;;6.95;2.13;;;11.70;99.90;;;;;;5011607;28;20034;-70
2021/09/14 06:08:36;;;;;;;3.00;2.67;;;11.80;99.90;;;;;;5011627;28;20112;-69
2021/09/14 06:11:03;;;;;;;6.28;2.83;;;12.00;99.90;;;;;;5011480;28;20108;-73
2021/09/14 06:13:30;;;;;;;3.35;1.90;;;12.20;99.90;;;;;;5009882;28;20411;-72
2021/09/14 06:15:57;;;;;;;2.97;1.60;;;12.30;99.90;;;;;;5011538;28;20096;-69
2021/09/14 06:18:25;;;;;;;10.02;1.58;;;12.40;99.90;;;;;;5011150;28;20129;-69
2021/09/14 06:20:54;;;;;;;1.73;1.58;;;12.50;99.90;;;;;;5011581;28;20168;-73
2021/09/14 06:23:22;;;;;;;2.42;1.98;;;12.60;99.90;;;;;;5009915;28;20054;-70
2021/09/14 06:25:51;;;;;;;2.88;1.67;;;12.80;99.90;;;;;;5011296;28;20047;-68
2021/09/14 06:28:18;;;;;;;1.63;1.52;;;12.80;99.90;;;;;;5011580;28;20380;-68
2021/09/14 06:30:45;;;;;;;2.78;1.90;;;12.80;99.90;;;;;;5012633;28;20073;-70
2021/09/14 06:33:15;;;;;;;;;;;12.90;99.90;;;;;;5010593;28;20046;-68
2021/09/14 06:35:48;;;;;;;2.63;1.60;;;13.00;99.90;;;;;;5011672;28;20305;-72
2021/09/14 06:38:26;;;;;;;3.65;1.30;;;13.10;99.90;;;;;;5011199;28;20104;-69
2021/09/14 06:40:54;;;;;;;1.95;1.73;;;13.20;99.90;;;;;;5011210;28;20050;-77
2021/09/14 06:43:25;;;;;;;2.10;1.65;;;13.30;99.90;;;;;;5009795;28;20108;-70
2021/09/14 06:46:17;;;;;;;2.50;1.42;;;13.30;99.90;;;;;;5011108;28;20388;-69
2021/09/14 06:48:54;;;;;;;3.20;1.52;;;13.30;99.90;;;;;;5011356;28;20480;-69
2021/09/14 06:51:21;;;;;;;1.58;1.10;;;13.30;99.90;;;;;;5010994;28;20054;-70
2021/09/14 06:53:48;;;;;;;5.78;1.85;;;13.40;99.90;;;;;;5012381;28;20115;-69
2021/09/14 06:56:15;;;;;;;2.47;1.52;;;13.40;99.90;;;;;;5010862;28;20069;-70
2021/09/14 06:58:45;;;;;;;1.08;0.77;;;13.50;99.90;;;;;;5010899;28;20038;-70
2021/09/14 07:01:19;;;;;;;1.60;1.05;;;13.50;99.90;;;;;;5010749;28;20123;-68
2021/09/14 07:03:47;;;;;;;1.48;0.60;;;13.60;99.90;;;;;;5012188;28;20053;-69
2021/09/14 07:06:14;;;;;;;1.88;0.77;;;13.70;99.90;;;;;;5012120;28;20077;-69
2021/09/14 07:08:41;;;;;;;4.20;1.02;;;13.70;99.90;;;;;;5011846;28;20124;-69
2021/09/14 07:11:08;;;;;;;1.25;0.70;;;13.80;99.90;;;;;;5012175;28;20392;-69
2021/09/14 07:13:35;;;;;;;1.65;0.82;;;13.80;99.90;;;;;;5010509;28;20092;-68
2021/09/14 07:16:03;;;;;;;0.68;0.68;;;13.80;99.90;;;;;;5011798;28;20056;-68
2021/09/14 07:18:30;;;;;;;1.10;0.68;;;13.80;99.90;;;;;;5011702;28;20050;-72
2021/09/14 07:20:57;;;;;;;4.55;1.05;;;13.80;99.90;;;;;;5011709;28;20103;-72
2021/09/14 07:23:24;;;;;;;0.77;0.70;;;13.90;99.90;;;;;;5010226;28;20108;-69
2021/09/14 07:25:51;;;;;;;3.47;0.75;;;13.90;99.90;;;;;;5011030;28;20077;-69
2021/09/14 07:28:18;;;;;;;2.28;1.25;;;14.00;99.90;;;;;;5011659;28;20045;-69
2021/09/14 07:30:45;;;;;;;0.80;0.73;;;14.00;99.90;;;;;;5011305;28;20103;-71
2021/09/14 07:33:13;;;;;;;1.60;0.85;;;14.00;99.90;;;;;;5009582;28;20077;-70
2021/09/14 07:35:40;;;;;;;0.80;0.80;;;14.00;99.90;;;;;;5011187;28;20034;-69
2021/09/14 07:38:10;;;;;;;1.67;1.00;;;14.00;99.90;;;;;;5011201;28;20448;-72
2021/09/14 07:40:37;;;;;;;0.80;0.80;;;14.00;99.90;;;;;;5010978;28;20057;-68
2021/09/14 07:43:05;;;;;;;2.38;0.90;;;14.00;99.90;;;;;;5011556;28;20066;-68
2021/09/14 07:45:32;;;;;;;4.03;0.82;;;14.00;99.90;;;;;;5009646;28;20502;-72
2021/09/14 07:47:59;;;;;;;1.52;1.00;;;14.00;99.90;;;;;;5010756;28;20072;-69
2021/09/14 07:50:26;;;;;;;0.88;0.70;;;14.00;99.90;;;;;;5010856;28;20053;-73
2021/09/14 07:52:53;;;;;;;0.95;0.73;;;14.10;99.90;;;;;;5011432;28;20065;-68
2021/09/14 07:55:20;;;;;;;0.98;0.68;;;14.20;99.90;;;;;;5009512;28;20509;-68
2021/09/14 07:57:47;;;;;;;0.60;0.60;;;14.20;99.90;;;;;;5009777;28;20065;-69
2021/09/14 08:00:14;;;;;;;0.80;0.75;;;14.20;99.90;;;;;;5010683;28;20128;-71
2021/09/14 08:02:41;;;;;;;2.17;0.50;;;14.30;99.90;;;;;;5010754;28;20045;-69
2021/09/14 08:05:08;;;;;;;0.77;0.60;;;14.30;99.90;;;;;;5011395;28;20046;-70
2021/09/14 08:07:35;;;;;;;1.27;0.30;;;14.40;99.90;;;;;;5009529;28;20042;-71
2021/09/14 08:10:03;;;;;;;0.65;0.65;;;14.50;99.90;;;;;;5010840;28;20130;-68
2021/09/14 08:12:32;;;;;;;0.90;0.90;;;14.50;99.90;;;;;;5009433;28;20369;-69
2021/09/14 08:14:58;;;;;;;1.02;0.57;;;14.50;99.90;;;;;;5009090;28;20433;-77
2021/09/14 08:17:25;;;;;;;1.55;0.77;;;14.50;99.90;;;;;;5008865;28;20061;-69
2021/09/14 08:19:52;;;;;;;2.28;0.82;;;14.60;99.90;;;;;;5010287;28;20073;-69
2021/09/14 08:22:19;;;;;;;0.88;0.32;;;14.60;99.90;;;;;;5010467;28;20042;-70
2021/09/14 08:24:46;;;;;;;1.55;0.90;;;14.50;99.90;;;;;;5010368;28;20054;-71
2021/09/14 08:27:13;;;;;;;0.77;0.63;;;14.60;99.90;;;;;;5009101;28;20045;-69
2021/09/14 08:29:40;;;;;;;0.60;0.40;;;14.70;99.90;;;;;;5010457;28;20120;-70
2021/09/14 08:32:07;;;;;;;1.20;0.60;;;14.70;99.90;;;;;;5010040;28;20042;-69
2021/09/14 08:34:34;;;;;;;1.65;0.57;;;14.80;99.90;;;;;;5010396;28;20038;-68
2021/09/14 08:37:01;;;;;;;1.90;0.70;;;14.90;99.90;;;;;;5010524;28;20600;-68
2021/09/14 08:39:28;;;;;;;0.95;0.50;;;14.90;99.90;;;;;;5012805;28;20046;-69
2021/09/14 08:41:56;;;;;;;1.85;0.50;;;14.90;99.90;;;;;;5013931;28;20057;-69
2021/09/14 08:44:23;;;;;;;0.98;0.73;;;14.90;99.90;;;;;;5014327;28;20130;-68
2021/09/14 08:46:50;;;;;;;2.55;0.80;;;14.90;99.90;;;;;;5014153;28;20050;-69
2021/09/14 08:49:17;;;;;;;3.30;1.10;;;14.90;99.90;;;;;;5012589;28;20460;-70
2021/09/14 08:51:44;;;;;;;0.90;0.65;;;14.90;99.90;;;;;;5013864;28;20092;-70
2021/09/14 08:54:11;;;;;;;0.55;0.43;;;14.80;99.90;;;;;;5014059;28;20069;-68
2021/09/14 08:56:38;;;;;;;0.95;0.50;;;14.80;99.90;;;;;;5013824;28;20105;-68
2021/09/14 08:59:05;;;;;;;0.60;0.60;;;14.70;99.90;;;;;;5013819;28;20070;-69
2021/09/14 09:01:32;;;;;;;1.58;1.10;;;14.70;99.90;;;;;;5011998;28;20401;-69
2021/09/14 09:04:05;;;;;;;1.73;0.40;;;14.80;99.90;;;;;;5012936;28;20069;-69
2021/09/14 09:06:37;;;;;;;2.00;1.80;;;14.80;99.90;;;;;;5013570;28;20050;-69
2021/09/14 09:09:15;;;;;;;1.67;0.88;;;14.80;99.90;;;;;;5013835;28;20433;-68
2021/09/14 09:11:59;;;;;;;2.63;0.60;;;14.80;99.90;;;;;;5012102;28;20463;-69
2021/09/14 09:14:33;;;;;;;0.32;0.30;;;14.90;99.90;;;;;;5013467;28;20065;-72
2021/09/14 09:17:06;;;;;;;2.35;0.85;;;15.00;99.90;;;;;;5013483;28;20448;-68
2021/09/14 09:19:33;;;;;;;1.25;1.15;;;15.00;99.90;;;;;;5012092;28;20042;-72
2021/09/14 09:22:07;;;;;;;6.95;0.90;;;15.00;99.90;;;;;;5013178;28;20520;-70
2021/09/14 09:24:48;;;;;;;2.13;0.50;;;15.00;99.90;;;;;;5013455;28;20041;-72
2021/09/14 09:27:18;;;;;;;0.90;0.70;;;15.20;99.90;;;;;;5011753;28;20077;-70
2021/09/14 09:30:00;;;;;;;1.95;0.60;;;15.30;99.90;;;;;;5013215;28;20042;-72
2021/09/14 09:32:50;;;;;;;0.73;0.50;;;15.20;99.90;;;;;;5013257;28;20558;-68
2021/09/14 09:35:28;;;;;;;1.83;0.50;;;15.40;99.90;;;;;;5011524;28;20042;-68
2021/09/14 09:37:55;;;;;;;0.60;0.60;;;15.50;99.90;;;;;;5012890;28;20037;-72
2021/09/14 09:40:24;;;;;;;0.50;0.50;;;15.60;99.90;;;;;;5012928;28;20069;-70
2021/09/14 09:42:51;;;;;;;0.60;0.60;;;15.70;99.90;;;;;;5013120;28;20049;-70
2021/09/14 09:45:19;;;;;;;0.32;0.30;;;15.70;99.90;;;;;;5011456;28;20046;-68
2021/09/14 09:47:48;;;;;;;1.00;0.90;;;15.60;99.90;;;;;;5012734;28;20103;-70
2021/09/14 09:50:15;;;;;;;0.50;0.50;;;15.50;99.90;;;;;;5012478;28;20115;-68
2021/09/14 09:52:45;;;;;;;0.60;0.30;;;15.60;99.90;;;;;;5012550;28;20403;-69
2021/09/14 09:55:12;;;;;;;0.57;0.52;;;15.60;99.90;;;;;;5011176;28;20041;-70
2021/09/14 09:57:39;;;;;;;2.70;0.50;;;15.50;99.90;;;;;;5012362;28;20049;-69
2021/09/14 10:00:13;;;;;;;1.50;0.60;;;15.50;99.90;;;;;;5012497;28;20125;-68
2021/09/14 10:02:47;;;;;;;3.20;0.70;;;15.50;99.90;;;;;;5010995;28;20439;-74
2021/09/14 10:05:15;;;;;;;0.57;0.52;;;15.50;99.90;;;;;;5011031;28;20144;-76
2021/09/14 10:07:45;;;;;;;1.50;0.68;;;15.60;99.90;;;;;;5027406;28;20046;-69
2021/09/14 10:10:12;;;;;;;0.70;0.43;;;15.60;99.90;;;;;;5012514;28;20041;-69
2021/09/14 10:12:39;;;;;;;0.73;0.73;;;15.60;99.90;;;;;;5012316;28;20096;-69
2021/09/14 10:15:11;;;;;;;0.43;0.32;;;15.80;99.90;;;;;;5012451;28;20050;-70
2021/09/14 10:17:50;;;;;;;1.17;0.60;;;15.80;99.90;;;;;;5011055;28;20057;-69
2021/09/14 10:20:19;;;;;;;0.60;0.50;;;16.00;99.90;;;;;;5011890;28;20074;-73
2021/09/14 10:22:59;;;;;;;0.70;0.60;;;16.10;99.90;;;;;;5011932;28;20186;-75
2021/09/14 10:25:26;;;;;;;;;;;16.10;99.90;;;;;;5011548;28;20042;-70
2021/09/14 10:28:14;;;;;;;3.30;0.93;;;16.00;99.90;;;;;;5012232;28;19928;-68
2021/09/14 10:30:43;;;;;;;0.75;0.50;;;15.90;99.90;;;;;;5011896;28;20053;-69
2021/09/14 10:33:29;;;;;;;0.43;0.32;;;16.00;99.90;;;;;;5011916;28;20066;-70
2021/09/14 10:35:56;;;;;;;0.60;0.60;;;16.10;99.90;;;;;;5026106;28;20073;-68
2021/09/14 10:38:25;;;;;;;0.75;0.73;;;16.10;99.90;;;;;;5012029;28;20100;-68
2021/09/14 10:40:53;;;;;;;1.05;0.63;;;16.20;99.90;;;;;;5011968;28;20045;-70
2021/09/14 10:43:26;;;;;;;1.42;0.80;;;16.10;99.90;;;;;;5010281;28;20125;-68
2021/09/14 10:45:54;;;;;;;4.28;0.40;;;15.90;99.90;;;;;;5011284;28;20063;-68
2021/09/14 10:48:30;;;;;;;0.68;0.55;;;15.80;99.90;;;;;;5011698;28;20404;-70
2021/09/14 10:51:18;;;;;;;0.50;0.50;;;15.70;99.90;;;;;;5011693;28;20125;-68
2021/09/14 10:53:56;;;;;;;0.77;0.63;;;15.90;99.90;;;;;;5010631;28;20034;-69
2021/09/14 10:56:24;;;;;;;0.40;0.38;;;15.90;99.90;;;;;;5011730;28;20048;-69
2021/09/14 10:58:51;;;;;;;3.92;0.70;;;15.90;99.90;;;;;;5011458;28;20136;-75
2021/09/14 11:01:27;;;;;;;1.02;0.38;;;16.00;99.90;;;;;;5009062;28;20384;-69
2021/09/14 11:04:00;;;;;;;2.47;0.55;;;16.00;99.90;;;;;;5011271;28;20499;-68
2021/09/14 11:06:31;;;;;;;4.85;1.98;;;15.90;99.90;;;;;;5011380;28;20562;-69
2021/09/14 11:09:00;;;;;;;0.70;0.60;;;15.80;99.90;;;;;;5011620;28;20054;-71
2021/09/14 11:11:27;;;;;;;0.50;0.45;;;15.80;99.90;;;;;;5009621;28;20515;-71
2021/09/14 11:13:55;;;;;;;0.50;0.40;;;16.00;99.90;;;;;;5011195;28;20038;-68
2021/09/14 11:16:22;;;;;;;0.77;0.60;;;16.00;99.90;;;;;;5011100;28;20483;-68
2021/09/14 11:18:50;;;;;;;0.85;0.63;;;16.10;99.90;;;;;;5010022;28;20133;-73
2021/09/14 11:21:18;;;;;;;0.90;0.40;;;16.10;99.90;;;;;;5008966;28;20500;-70
2021/09/14 11:23:49;;;;;;;1.00;0.60;;;16.10;99.90;;;;;;5010772;28;20057;-71
2021/09/14 11:26:18;;;;;;;0.65;0.50;;;16.20;99.90;;;;;;5011049;28;20173;-75
2021/09/14 11:28:56;;;;;;;1.17;0.52;;;16.20;99.90;;;;;;5010653;28;20077;-69
2021/09/14 11:31:29;;;;;;;0.75;0.55;;;16.20;99.90;;;;;;5008913;28;20046;-72
2021/09/14 11:33:57;;;;;;;1.15;0.30;;;16.30;99.90;;;;;;5010365;28;20105;-71
2021/09/14 11:36:25;;;;;;;2.22;1.48;;;16.20;99.90;;;;;;5010620;28;20380;-69
2021/09/14 11:39:06;;;;;;;1.38;0.57;;;16.30;99.90;;;;;;5010444;28;20400;-69
2021/09/14 11:41:37;;;;;;;0.90;0.80;;;16.30;99.90;;;;;;5007774;28;20042;-69
2021/09/14 11:44:07;;;;;;;0.57;0.45;;;16.30;99.90;;;;;;5010561;28;20042;-69
2021/09/14 11:46:47;;;;;;;0.77;0.65;;;16.30;99.90;;;;;;5010422;28;20517;-68
2021/09/14 11:49:13;;;;;;;2.10;0.60;;;16.30;99.90;;;;;;5008897;28;20053;-73
2021/09/14 11:51:41;;;;;;;0.43;0.35;;;16.30;99.90;;;;;;5010003;28;20101;-69
2021/09/14 11:54:13;;;;;;;0.20;0.20;;;16.50;99.90;;;;;;5009802;28;20041;-69
2021/09/14 11:56:42;;;;;;;0.50;0.50;;;16.50;99.90;;;;;;5010006;28;20053;-75
2021/09/14 11:59:16;;;;;;;0.50;0.30;;;16.50;99.90;;;;;;5010247;28;20172;-70
2021/09/14 12:01:44;;;;;;;0.68;0.60;;;16.70;99.90;;;;;;5008910;28;20042;-70
2021/09/14 12:04:16;;;;;;;0.63;0.32;;;16.70;99.90;;;;;;5009658;28;20437;-74
2021/09/14 12:06:50;;;;;;;0.98;0.40;;;16.40;99.90;;;;;;5010096;28;20140;-72
2021/09/14 12:09:19;;;;;;;0.50;0.50;;;16.30;99.90;;;;;;5008354;28;20057;-66
2021/09/14 12:11:46;;;;;;;1.05;0.50;;;16.40;99.90;;;;;;5010915;28;20554;-72
2021/09/14 12:14:18;;;;;;;1.25;0.45;;;16.40;99.90;;;;;;5014061;28;20069;-69
2021/09/14 12:16:51;;;;;;;0.63;0.40;;;16.40;99.90;;;;;;5014169;28;20496;-72
2021/09/14 12:19:19;;;;;;;0.85;0.40;;;16.40;99.90;;;;;;5027622;28;20050;-71
2021/09/14 12:21:49;;;;;;;0.70;0.63;;;16.50;99.90;;;;;;5014039;28;20050;-74
2021/09/14 12:24:16;;;;;;;0.80;0.80;;;16.60;99.90;;;;;;5013924;28;20096;-76
2021/09/14 12:26:45;;;;;;;1.00;0.50;;;16.80;99.90;;;;;;5012821;28;20107;-71
2021/09/14 12:29:12;;;;;;;0.63;0.30;;;16.70;99.90;;;;;;5012503;28;20062;-70
2021/09/14 12:31:39;;;;;;;2.55;0.60;;;16.70;99.90;;;;;;5013884;28;20046;-73
2021/09/14 12:34:08;;;;;;;0.52;0.52;;;16.70;99.90;;;;;;5013628;28;20041;-69
2021/09/14 12:36:39;;;;;;;0.40;0.35;;;16.70;99.90;;;;;;5013835;28;20050;-74
2021/09/14 12:39:06;;;;;;;0.55;0.55;;;16.80;99.90;;;;;;5012315;28;20046;-70
2021/09/14 12:41:33;;;;;;;0.70;0.50;;;16.80;99.90;;;;;;5012108;28;20088;-69
2021/09/14 12:44:02;;;;;;;0.38;0.30;;;16.60;99.90;;;;;;5013587;28;20358;-69
2021/09/14 12:46:29;;;;;;;0.88;0.60;;;16.60;99.90;;;;;;5013937;28;20092;-71
2021/09/14 12:48:56;;;;;;;0.77;0.50;;;16.60;99.90;;;;;;5013660;28;20046;-69
2021/09/14 12:51:23;;;;;;;0.80;0.32;;;16.50;99.90;;;;;;5012398;28;20072;-71
2021/09/14 12:53:50;;;;;;;0.60;0.50;;;16.50;99.90;;;;;;5013427;28;20038;-70
2021/09/14 12:56:18;;;;;;;0.40;0.25;;;16.40;99.90;;;;;;5012414;28;20494;-68
2021/09/14 12:58:49;;;;;;;0.60;0.30;;;16.50;99.90;;;;;;5013312;28;20487;-70
2021/09/14 13:01:15;;;;;;;0.55;0.40;;;16.50;99.90;;;;;;5012026;28;20041;-70
2021/09/14 13:03:43;;;;;;;0.22;0.22;;;16.70;99.90;;;;;;5013196;28;20037;-68
2021/09/14 13:06:12;;;;;;;0.63;0.40;;;16.70;99.90;;;;;;5013380;28;20445;-71
2021/09/14 13:08:39;;;;;;;0.40;0.40;;;16.80;99.90;;;;;;5011794;28;20479;-73
2021/09/14 13:11:06;;;;;;;0.55;0.45;;;16.90;99.90;;;;;;5013056;28;20124;-70
2021/09/14 13:16:19;;;;;;;0.40;0.40;;;16.60;99.90;;;;;;5013209;28;20091;-68
2021/09/14 13:18:47;;;;;;;1.88;0.50;;;16.50;99.90;;;;;;5011705;28;20062;-70
2021/09/14 13:21:16;;;;;;;2.67;0.40;;;16.60;99.90;;;;;;5011921;28;20073;-70
2021/09/14 13:23:47;;;;;;;1.75;0.43;;;16.70;99.90;;;;;;5012290;28;20069;-70
2021/09/14 13:26:14;;;;;;;;;;;16.70;99.90;;;;;;5013590;28;20042;-70
2021/09/14 13:28:41;;;;;;;0.93;0.57;;;17.00;99.90;;;;;;5013031;28;20016;-70
2021/09/14 13:31:08;;;;;;;1.08;0.32;;;16.90;99.90;;;;;;5012719;28;20064;-69
2021/09/14 13:33:36;;;;;;;0.55;0.35;;;16.90;99.90;;;;;;5011600;28;20066;-70
2021/09/14 13:36:04;;;;;;;0.45;0.45;;;17.10;99.90;;;;;;5012607;28;20061;-65
2021/09/14 13:38:31;;;;;;;1.05;0.60;;;17.30;99.90;;;;;;5012607;28;20378;-68
2021/09/14 13:41:05;;;;;;;3.15;1.00;;;17.10;99.90;;;;;;5012777;28;20049;-66
2021/09/14 13:43:34;;;;;;;0.80;0.40;;;17.00;99.90;;;;;;5011301;28;20077;-66
2021/09/14 13:46:12;;;;;;;0.73;0.50;;;17.00;99.90;;;;;;5011988;28;20037;-67
2021/09/14 13:48:48;;;;;;;1.02;0.60;;;16.90;99.90;;;;;;5012597;28;20369;-66
2021/09/14 13:51:24;;;;;;;0.45;0.40;;;17.10;99.90;;;;;;5010778;28;20494;-70
2021/09/14 13:53:52;;;;;;;1.05;0.90;;;17.20;99.90;;;;;;5012229;28;20041;-66
2021/09/14 13:56:23;;;;;;;1.48;0.70;;;17.20;99.90;;;;;;5012244;28;20403;-67
2021/09/14 13:58:52;;;;;;;1.30;0.47;;;17.20;99.90;;;;;;5012191;28;20046;-69
2021/09/14 14:01:19;;;;;;;0.52;0.45;;;17.30;99.90;;;;;;5010735;28;20045;-67
2021/09/14 14:03:47;;;;;;;0.30;0.30;;;17.20;99.90;;;;;;5012171;28;20417;-69